sensor_id;sensor_type;location;lat;lon;timestamp;pressure;altitude;pressure_sealevel;temperature;humidity
77171;BME280;66144;50.020;14.422;2023-02-01T00:02:11;98801.81;;;4.91;69.31
77171;BME280;66144;50.020;14.422;2023-02-01T00:04:36;98802.00;;;4.89;69.57
77171;BME280;66144;50.020;14.422;2023-02-01T00:07:02;98799.41;;;4.89;69.29
77171;BME280;66144;50.020;14.422;2023-02-01T00:09:27;98801.00;;;4.90;69.26
77171;BME280;66144;50.020;14.422;2023-02-01T00:11:52;98800.81;;;4.92;69.44
77171;BME280;66144;50.020;14.422;2023-02-01T00:14:18;98817.31;;;4.91;69.48
77171;BME280;66144;50.020;14.422;2023-02-01T00:16:43;98817.31;;;4.91;69.44
77171;BME280;66144;50.020;14.422;2023-02-01T00:19:13;98810.97;;;4.86;69.74
77171;BME280;66144;50.020;14.422;2023-02-01T00:21:39;98822.72;;;4.89;69.76
77171;BME280;66144;50.020;14.422;2023-02-01T00:24:05;98819.72;;;4.85;70.06
77171;BME280;66144;50.020;14.422;2023-02-01T00:26:35;98814.34;;;4.87;70.06
77171;BME280;66144;50.020;14.422;2023-02-01T00:29:02;98814.75;;;4.84;70.24
77171;BME280;66144;50.020;14.422;2023-02-01T00:31:28;98814.81;;;4.77;70.71
77171;BME280;66144;50.020;14.422;2023-02-01T00:33:53;98817.19;;;4.79;70.86
77171;BME280;66144;50.020;14.422;2023-02-01T00:36:19;98826.75;;;4.78;71.00
77171;BME280;66144;50.020;14.422;2023-02-01T00:38:44;98817.78;;;4.81;71.30
77171;BME280;66144;50.020;14.422;2023-02-01T00:41:15;98819.78;;;4.79;71.44
77171;BME280;66144;50.020;14.422;2023-02-01T00:43:41;98823.41;;;4.71;71.93
77171;BME280;66144;50.020;14.422;2023-02-01T00:46:07;98829.16;;;4.73;71.66
77171;BME280;66144;50.020;14.422;2023-02-01T00:48:33;98825.56;;;4.74;72.20
77171;BME280;66144;50.020;14.422;2023-02-01T00:51:10;98825.56;;;4.74;72.20
77171;BME280;66144;50.020;14.422;2023-02-01T00:53:36;98825.16;;;4.77;72.38
77171;BME280;66144;50.020;14.422;2023-02-01T00:56:02;98822.59;;;4.77;72.01
77171;BME280;66144;50.020;14.422;2023-02-01T00:58:27;98821.59;;;4.78;71.95
77171;BME280;66144;50.020;14.422;2023-02-01T01:03:30;98823.78;;;4.75;72.02
77171;BME280;66144;50.020;14.422;2023-02-01T01:05:59;98819.41;;;4.75;72.08
77171;BME280;66144;50.020;14.422;2023-02-01T01:08:24;98822.00;;;4.75;72.27
77171;BME280;66144;50.020;14.422;2023-02-01T01:10:50;98825.16;;;4.77;72.26
77171;BME280;66144;50.020;14.422;2023-02-01T01:13:15;98817.41;;;4.77;72.44
77171;BME280;66144;50.020;14.422;2023-02-01T01:15:41;98820.59;;;4.73;72.32
77171;BME280;66144;50.020;14.422;2023-02-01T01:18:07;98827.16;;;4.75;72.59
77171;BME280;66144;50.020;14.422;2023-02-01T01:20:38;98816.41;;;4.78;72.39
77171;BME280;66144;50.020;14.422;2023-02-01T01:23:04;98808.06;;;4.76;71.73
77171;BME280;66144;50.020;14.422;2023-02-01T01:25:30;98816.03;;;4.75;71.99
77171;BME280;66144;50.020;14.422;2023-02-01T01:27:56;98823.16;;;4.79;72.04
77171;BME280;66144;50.020;14.422;2023-02-01T01:30:21;98824.75;;;4.80;71.80
77171;BME280;66144;50.020;14.422;2023-02-01T01:32:46;98824.97;;;4.79;71.40
77171;BME280;66144;50.020;14.422;2023-02-01T01:35:12;98818.19;;;4.78;71.64
77171;BME280;66144;50.020;14.422;2023-02-01T01:37:37;98820.59;;;4.79;71.45
77171;BME280;66144;50.020;14.422;2023-02-01T01:40:03;98826.91;;;4.83;71.23
77171;BME280;66144;50.020;14.422;2023-02-01T01:42:29;98833.84;;;4.90;71.48
77171;BME280;66144;50.020;14.422;2023-02-01T01:44:59;98819.94;;;4.84;70.92
77171;BME280;66144;50.020;14.422;2023-02-01T01:47:33;98829.69;;;4.89;70.74
77171;BME280;66144;50.020;14.422;2023-02-01T01:50:02;98825.50;;;4.88;70.78
77171;BME280;66144;50.020;14.422;2023-02-01T01:52:28;98828.88;;;4.88;70.26
77171;BME280;66144;50.020;14.422;2023-02-01T01:54:53;98822.13;;;4.87;70.37
77171;BME280;66144;50.020;14.422;2023-02-01T01:57:33;98812.19;;;4.84;69.42
77171;BME280;66144;50.020;14.422;2023-02-01T02:00:12;98817.31;;;4.91;69.51
77171;BME280;66144;50.020;14.422;2023-02-01T02:02:43;98825.88;;;4.91;69.10
77171;BME280;66144;50.020;14.422;2023-02-01T02:05:11;98804.38;;;4.91;68.66
77171;BME280;66144;50.020;14.422;2023-02-01T02:07:40;98820.50;;;4.93;68.37
77171;BME280;66144;50.020;14.422;2023-02-01T02:10:10;98816.91;;;4.94;67.99
77171;BME280;66144;50.020;14.422;2023-02-01T02:12:40;98813.53;;;4.93;67.18
77171;BME280;66144;50.020;14.422;2023-02-01T02:15:08;98815.53;;;4.91;67.07
77171;BME280;66144;50.020;14.422;2023-02-01T02:18:05;98813.91;;;4.97;66.29
77171;BME280;66144;50.020;14.422;2023-02-01T02:26:17;98833.44;;;4.93;66.52
77171;BME280;66144;50.020;14.422;2023-02-01T02:37:45;98845.38;;;4.94;66.78
77171;BME280;66144;50.020;14.422;2023-02-01T02:40:24;98846.59;;;4.91;67.13
77171;BME280;66144;50.020;14.422;2023-02-01T02:43:03;98851.56;;;4.93;66.89
77171;BME280;66144;50.020;14.422;2023-02-01T02:45:54;98861.28;;;4.97;67.19
77171;BME280;66144;50.020;14.422;2023-02-01T02:48:51;98863.28;;;4.95;67.74
77171;BME280;66144;50.020;14.422;2023-02-01T02:51:29;98853.94;;;4.94;68.15
77171;BME280;66144;50.020;14.422;2023-02-01T02:54:20;98842.19;;;4.92;68.30
77171;BME280;66144;50.020;14.422;2023-02-01T02:57:07;98844.59;;;4.93;68.78
77171;BME280;66144;50.020;14.422;2023-02-01T02:59:53;98837.03;;;4.92;68.90
77171;BME280;66144;50.020;14.422;2023-02-01T03:02:39;98823.97;;;4.80;69.73
77171;BME280;66144;50.020;14.422;2023-02-01T03:05:23;98821.16;;;4.81;69.39
77171;BME280;66144;50.020;14.422;2023-02-01T03:07:57;98822.31;;;4.85;69.86
77171;BME280;66144;50.020;14.422;2023-02-01T03:10:48;98819.72;;;4.85;69.41
77171;BME280;66144;50.020;14.422;2023-02-01T03:13:36;98819.59;;;4.80;69.78
77171;BME280;66144;50.020;14.422;2023-02-01T03:18:51;98803.69;;;4.77;69.83
77171;BME280;66144;50.020;14.422;2023-02-01T03:21:46;98813.22;;;4.76;69.87
77171;BME280;66144;50.020;14.422;2023-02-01T03:24:18;98808.47;;;4.73;70.43
77171;BME280;66144;50.020;14.422;2023-02-01T03:26:53;98811.06;;;4.73;69.94
77171;BME280;66144;50.020;14.422;2023-02-01T03:29:27;98802.13;;;4.69;70.58
77171;BME280;66144;50.020;14.422;2023-02-01T03:31:54;98804.91;;;4.68;70.56
77171;BME280;66144;50.020;14.422;2023-02-01T03:34:20;98792.59;;;4.63;70.40
77171;BME280;66144;50.020;14.422;2023-02-01T03:36:51;98780.88;;;4.61;70.89
77171;BME280;66144;50.020;14.422;2023-02-01T03:39:29;98787.66;;;4.62;70.72
77171;BME280;66144;50.020;14.422;2023-02-01T03:41:59;98788.66;;;4.61;70.90
77171;BME280;66144;50.020;14.422;2023-02-01T03:44:32;98785.88;;;4.56;70.66
77171;BME280;66144;50.020;14.422;2023-02-01T03:47:13;98781.88;;;4.60;71.05
77171;BME280;66144;50.020;14.422;2023-02-01T03:55:02;98777.13;;;4.57;70.78
77171;BME280;66144;50.020;14.422;2023-02-01T03:57:34;98772.34;;;4.54;70.65
77171;BME280;66144;50.020;14.422;2023-02-01T04:00:09;98778.72;;;4.51;70.73
77171;BME280;66144;50.020;14.422;2023-02-01T04:02:36;98779.53;;;4.51;70.56
77171;BME280;66144;50.020;14.422;2023-02-01T04:05:02;98782.75;;;4.40;71.50
77171;BME280;66144;50.020;14.422;2023-02-01T04:07:27;98788.28;;;4.44;70.92
77171;BME280;66144;50.020;14.422;2023-02-01T04:09:52;98795.69;;;4.40;70.92
77171;BME280;66144;50.020;14.422;2023-02-01T04:12:18;98802.22;;;4.43;70.79
77171;BME280;66144;50.020;14.422;2023-02-01T04:14:43;98798.06;;;4.42;70.81
77171;BME280;66144;50.020;14.422;2023-02-01T04:17:08;98801.03;;;4.45;70.69
77171;BME280;66144;50.020;14.422;2023-02-01T04:19:34;98803.19;;;4.48;70.65
77171;BME280;66144;50.020;14.422;2023-02-01T04:21:59;98804.41;;;4.46;70.42
77171;BME280;66144;50.020;14.422;2023-02-01T04:24:24;98791.69;;;4.44;70.81
77171;BME280;66144;50.020;14.422;2023-02-01T04:26:50;98786.31;;;4.46;70.57
77171;BME280;66144;50.020;14.422;2023-02-01T04:29:15;98778.53;;;4.46;70.64
77171;BME280;66144;50.020;14.422;2023-02-01T04:31:40;98785.50;;;4.45;70.59
77171;BME280;66144;50.020;14.422;2023-02-01T04:34:06;98780.53;;;4.50;69.79
77171;BME280;66144;50.020;14.422;2023-02-01T04:36:31;98787.06;;;4.53;70.26
77171;BME280;66144;50.020;14.422;2023-02-01T04:38:57;98776.56;;;4.48;70.09
77171;BME280;66144;50.020;14.422;2023-02-01T04:41:22;98775.97;;;4.46;70.39
77171;BME280;66144;50.020;14.422;2023-02-01T04:43:49;98771.59;;;4.46;70.45
77171;BME280;66144;50.020;14.422;2023-02-01T04:46:15;98758.25;;;4.43;70.96
77171;BME280;66144;50.020;14.422;2023-02-01T04:48:41;98758.84;;;4.45;70.71
77171;BME280;66144;50.020;14.422;2023-02-01T04:51:07;98751.94;;;4.39;71.13
77171;BME280;66144;50.020;14.422;2023-02-01T04:53:32;98745.34;;;4.43;71.19
77171;BME280;66144;50.020;14.422;2023-02-01T04:55:57;98738.03;;;4.40;71.34
77171;BME280;66144;50.020;14.422;2023-02-01T04:58:23;98738.44;;;4.37;71.62
77171;BME280;66144;50.020;14.422;2023-02-01T05:00:48;98729.28;;;4.34;71.79
77171;BME280;66144;50.020;14.422;2023-02-01T05:03:14;98728.50;;;4.34;72.10
77171;BME280;66144;50.020;14.422;2023-02-01T05:05:39;98725.69;;;4.35;72.06
77171;BME280;66144;50.020;14.422;2023-02-01T05:08:05;98733.06;;;4.32;72.82
77171;BME280;66144;50.020;14.422;2023-02-01T05:10:30;98735.47;;;4.27;73.06
77171;BME280;66144;50.020;14.422;2023-02-01T05:12:55;98741.63;;;4.32;73.20
77171;BME280;66144;50.020;14.422;2023-02-01T05:15:39;98735.06;;;4.30;73.34
77171;BME280;66144;50.020;14.422;2023-02-01T05:18:05;98726.72;;;4.28;73.53
77171;BME280;66144;50.020;14.422;2023-02-01T05:20:30;98728.91;;;4.24;73.66
77171;BME280;66144;50.020;14.422;2023-02-01T05:22:55;98727.56;;;4.22;73.64
77171;BME280;66144;50.020;14.422;2023-02-01T05:25:21;98739.50;;;4.23;73.79
77171;BME280;66144;50.020;14.422;2023-02-01T05:27:46;98741.28;;;4.22;73.53
77171;BME280;66144;50.020;14.422;2023-02-01T05:30:11;98740.69;;;4.20;73.25
77171;BME280;66144;50.020;14.422;2023-02-01T05:32:37;98740.50;;;4.22;73.74
77171;BME280;66144;50.020;14.422;2023-02-01T05:35:02;98739.91;;;4.20;73.40
77171;BME280;66144;50.020;14.422;2023-02-01T05:37:28;98734.53;;;4.14;73.85
77171;BME280;66144;50.020;14.422;2023-02-01T05:39:54;98745.06;;;4.20;73.65
77171;BME280;66144;50.020;14.422;2023-02-01T05:42:19;98729.97;;;4.16;73.65
77171;BME280;66144;50.020;14.422;2023-02-01T05:44:45;98729.97;;;4.16;73.41
77171;BME280;66144;50.020;14.422;2023-02-01T05:47:10;98726.97;;;4.20;73.54
77171;BME280;66144;50.020;14.422;2023-02-01T05:49:35;98721.00;;;4.19;73.54
77171;BME280;66144;50.020;14.422;2023-02-01T05:52:01;98713.25;;;4.19;73.23
77171;BME280;66144;50.020;14.422;2023-02-01T05:54:27;98720.81;;;4.21;73.44
77171;BME280;66144;50.020;14.422;2023-02-01T05:56:52;98713.06;;;4.21;73.07
77171;BME280;66144;50.020;14.422;2023-02-01T05:59:17;98722.19;;;4.23;73.35
77171;BME280;66144;50.020;14.422;2023-02-01T06:01:43;98712.47;;;4.19;73.34
77171;BME280;66144;50.020;14.422;2023-02-01T06:04:08;98707.91;;;4.14;73.18
77171;BME280;66144;50.020;14.422;2023-02-01T06:06:33;98709.47;;;4.22;73.48
77171;BME280;66144;50.020;14.422;2023-02-01T06:08:59;98701.13;;;4.20;72.94
77171;BME280;66144;50.020;14.422;2023-02-01T06:11:25;98698.13;;;4.23;72.98
77171;BME280;66144;50.020;14.422;2023-02-01T06:13:50;98689.34;;;4.24;73.01
77171;BME280;66144;50.020;14.422;2023-02-01T06:16:16;98703.66;;;4.26;72.56
77171;BME280;66144;50.020;14.422;2023-02-01T06:18:41;98693.13;;;4.28;72.82
77171;BME280;66144;50.020;14.422;2023-02-01T06:21:07;98691.75;;;4.25;72.77
77171;BME280;66144;50.020;14.422;2023-02-01T06:23:33;98672.06;;;4.24;73.76
77171;BME280;66144;50.020;14.422;2023-02-01T06:26:00;98696.50;;;4.28;73.84
77171;BME280;66144;50.020;14.422;2023-02-01T06:28:27;98692.31;;;4.27;73.54
77171;BME280;66144;50.020;14.422;2023-02-01T06:30:53;98689.75;;;4.27;73.71
77171;BME280;66144;50.020;14.422;2023-02-01T06:33:18;98691.31;;;4.28;73.75
77171;BME280;66144;50.020;14.422;2023-02-01T06:35:44;98694.72;;;4.29;73.36
77171;BME280;66144;50.020;14.422;2023-02-01T06:38:11;98688.53;;;4.30;73.56
77171;BME280;66144;50.020;14.422;2023-02-01T06:40:37;98688.91;;;4.33;73.66
77171;BME280;66144;50.020;14.422;2023-02-01T06:43:03;98694.06;;;4.40;73.27
77171;BME280;66144;50.020;14.422;2023-02-01T06:45:28;98691.28;;;4.41;73.24
77171;BME280;66144;50.020;14.422;2023-02-01T06:47:53;98685.13;;;4.36;73.19
77171;BME280;66144;50.020;14.422;2023-02-01T06:50:19;98691.63;;;4.45;73.05
77171;BME280;66144;50.020;14.422;2023-02-01T06:52:44;98682.72;;;4.41;73.15
77171;BME280;66144;50.020;14.422;2023-02-01T06:55:09;98679.94;;;4.42;72.83
77171;BME280;66144;50.020;14.422;2023-02-01T06:57:35;98682.28;;;4.44;72.95
77171;BME280;66144;50.020;14.422;2023-02-01T07:00:02;98671.38;;;4.42;73.13
77171;BME280;66144;50.020;14.422;2023-02-01T07:02:28;98681.06;;;4.46;73.16
77171;BME280;66144;50.020;14.422;2023-02-01T07:04:53;98678.91;;;4.43;73.17
77171;BME280;66144;50.020;14.422;2023-02-01T07:07:19;98683.53;;;4.41;73.52
77171;BME280;66144;50.020;14.422;2023-02-01T07:09:45;98680.13;;;4.41;73.41
77171;BME280;66144;50.020;14.422;2023-02-01T07:12:11;98670.75;;;4.46;73.73
77171;BME280;66144;50.020;14.422;2023-02-01T07:14:36;98666.56;;;4.45;73.58
77171;BME280;66144;50.020;14.422;2023-02-01T07:17:02;98677.69;;;4.46;73.09
77171;BME280;66144;50.020;14.422;2023-02-01T07:19:27;98665.41;;;4.41;73.80
77171;BME280;66144;50.020;14.422;2023-02-01T07:21:52;98662.38;;;4.44;73.74
77171;BME280;66144;50.020;14.422;2023-02-01T07:24:17;98656.22;;;4.45;73.92
77171;BME280;66144;50.020;14.422;2023-02-01T07:26:43;98654.44;;;4.46;74.00
77171;BME280;66144;50.020;14.422;2023-02-01T07:29:08;98667.41;;;4.39;74.25
77171;BME280;66144;50.020;14.422;2023-02-01T07:31:33;98661.03;;;4.42;74.27
77171;BME280;66144;50.020;14.422;2023-02-01T07:33:59;98661.84;;;4.42;74.00
77171;BME280;66144;50.020;14.422;2023-02-01T07:36:25;98656.28;;;4.39;74.24
77171;BME280;66144;50.020;14.422;2023-02-01T07:38:51;98657.22;;;4.44;74.42
77171;BME280;66144;50.020;14.422;2023-02-01T07:41:17;98659.00;;;4.44;74.43
77171;BME280;66144;50.020;14.422;2023-02-01T07:43:42;98657.44;;;4.43;74.67
77171;BME280;66144;50.020;14.422;2023-02-01T07:46:09;98657.00;;;4.46;74.50
77171;BME280;66144;50.020;14.422;2023-02-01T07:48:35;98653.81;;;4.50;74.39
77171;BME280;66144;50.020;14.422;2023-02-01T07:51:01;98654.19;;;4.54;74.24
77171;BME280;66144;50.020;14.422;2023-02-01T07:53:29;98660.16;;;4.55;74.10
77171;BME280;66144;50.020;14.422;2023-02-01T07:55:54;98648.19;;;4.60;74.02
77171;BME280;66144;50.020;14.422;2023-02-01T07:58:22;98643.44;;;4.57;73.63
77171;BME280;66144;50.020;14.422;2023-02-01T08:00:47;98646.16;;;4.62;73.33
77171;BME280;66144;50.020;14.422;2023-02-01T08:03:31;98644.53;;;4.68;73.55
77171;BME280;66144;50.020;14.422;2023-02-01T08:05:56;98644.91;;;4.71;72.95
77171;BME280;66144;50.020;14.422;2023-02-01T08:08:22;98645.66;;;4.78;73.58
77171;BME280;66144;50.020;14.422;2023-02-01T08:10:48;98637.44;;;4.81;73.01
77171;BME280;66144;50.020;14.422;2023-02-01T08:13:14;98640.81;;;4.82;73.10
77171;BME280;66144;50.020;14.422;2023-02-01T08:15:39;98649.53;;;4.88;73.22
77171;BME280;66144;50.020;14.422;2023-02-01T08:18:04;98645.97;;;4.89;73.07
77171;BME280;66144;50.020;14.422;2023-02-01T08:20:30;98644.53;;;4.93;72.87
77171;BME280;66144;50.020;14.422;2023-02-01T08:22:56;98642.31;;;4.96;72.59
77171;BME280;66144;50.020;14.422;2023-02-01T08:25:21;98652.00;;;5.01;72.40
77171;BME280;66144;50.020;14.422;2023-02-01T08:27:47;98638.66;;;5.04;72.29
77171;BME280;66144;50.020;14.422;2023-02-01T08:30:12;98634.63;;;5.08;72.41
77171;BME280;66144;50.020;14.422;2023-02-01T08:32:38;98630.63;;;5.12;72.47
77171;BME280;66144;50.020;14.422;2023-02-01T08:35:04;98636.16;;;5.15;72.42
77171;BME280;66144;50.020;14.422;2023-02-01T08:37:30;98625.06;;;5.08;72.45
77171;BME280;66144;50.020;14.422;2023-02-01T08:39:56;98622.44;;;5.15;72.12
77171;BME280;66144;50.020;14.422;2023-02-01T08:42:21;98629.56;;;5.19;71.96
77171;BME280;66144;50.020;14.422;2023-02-01T08:45:05;98638.03;;;5.27;71.97
77171;BME280;66144;50.020;14.422;2023-02-01T08:47:33;98634.03;;;5.31;72.04
77171;BME280;66144;50.020;14.422;2023-02-01T08:49:58;98627.25;;;5.30;71.93
77171;BME280;66144;50.020;14.422;2023-02-01T08:52:24;98631.66;;;5.29;71.70
77171;BME280;66144;50.020;14.422;2023-02-01T08:54:49;98629.00;;;5.36;71.34
77171;BME280;66144;50.020;14.422;2023-02-01T08:57:15;98629.63;;;5.31;71.17
77171;BME280;66144;50.020;14.422;2023-02-01T08:59:40;98630.59;;;5.37;71.67
77171;BME280;66144;50.020;14.422;2023-02-01T09:02:08;98617.84;;;5.35;71.37
77171;BME280;66144;50.020;14.422;2023-02-01T09:04:37;98631.91;;;5.39;70.87
77171;BME280;66144;50.020;14.422;2023-02-01T09:07:02;98620.44;;;5.35;70.34
77171;BME280;66144;50.020;14.422;2023-02-01T09:09:27;98634.75;;;5.38;70.08
77171;BME280;66144;50.020;14.422;2023-02-01T09:11:53;98615.03;;;5.37;70.45
77171;BME280;66144;50.020;14.422;2023-02-01T09:14:18;98609.06;;;5.36;69.90
77171;BME280;66144;50.020;14.422;2023-02-01T09:16:44;98618.75;;;5.41;69.60
77171;BME280;66144;50.020;14.422;2023-02-01T09:19:09;98617.41;;;5.38;69.55
77171;BME280;66144;50.020;14.422;2023-02-01T09:21:35;98609.13;;;5.48;69.04
77171;BME280;66144;50.020;14.422;2023-02-01T09:24:00;98615.25;;;5.53;68.59
77171;BME280;66144;50.020;14.422;2023-02-01T09:26:25;98622.00;;;5.54;68.72
77171;BME280;66144;50.020;14.422;2023-02-01T09:28:51;98613.06;;;5.69;68.27
77171;BME280;66144;50.020;14.422;2023-02-01T09:31:16;98617.88;;;5.83;68.28
77171;BME280;66144;50.020;14.422;2023-02-01T09:33:42;98616.25;;;5.89;67.15
77171;BME280;66144;50.020;14.422;2023-02-01T09:36:07;98613.91;;;5.99;67.56
77171;BME280;66144;50.020;14.422;2023-02-01T09:38:33;98601.94;;;5.98;66.62
77171;BME280;66144;50.020;14.422;2023-02-01T09:40:58;98605.59;;;6.09;66.75
77171;BME280;66144;50.020;14.422;2023-02-01T09:43:56;98594.44;;;6.08;67.04
77171;BME280;66144;50.020;14.422;2023-02-01T09:46:29;98594.00;;;6.11;66.67
77171;BME280;66144;50.020;14.422;2023-02-01T09:49:00;98587.25;;;6.10;66.50
77171;BME280;66144;50.020;14.422;2023-02-01T09:51:33;98595.03;;;6.10;66.33
77171;BME280;66144;50.020;14.422;2023-02-01T09:54:08;98596.69;;;6.16;66.08
77171;BME280;66144;50.020;14.422;2023-02-01T10:01:47;98600.44;;;6.20;65.48
77171;BME280;66144;50.020;14.422;2023-02-01T10:04:14;98592.44;;;6.22;65.92
77171;BME280;66144;50.020;14.422;2023-02-01T10:25:23;98611.09;;;6.31;67.19
77171;BME280;66144;50.020;14.422;2023-02-01T10:27:51;98610.50;;;6.29;66.56
77171;BME280;66144;50.020;14.422;2023-02-01T10:30:25;98613.53;;;6.26;66.68
77171;BME280;66144;50.020;14.422;2023-02-01T10:33:45;98597.44;;;6.35;67.42
77171;BME280;66144;50.020;14.422;2023-02-01T10:35:46;98602.59;;;6.23;66.83
77171;BME280;66144;50.020;14.422;2023-02-01T10:38:19;98606.19;;;6.22;66.69
77171;BME280;66144;50.020;14.422;2023-02-01T10:40:48;98600.56;;;6.26;67.44
77171;BME280;66144;50.020;14.422;2023-02-01T10:43:14;98597.84;;;6.20;67.39
77171;BME280;66144;50.020;14.422;2023-02-01T10:45:40;98598.19;;;6.24;66.67
77171;BME280;66144;50.020;14.422;2023-02-01T10:48:07;98588.63;;;6.24;65.91
77171;BME280;66144;50.020;14.422;2023-02-01T10:56:14;98583.84;;;6.51;64.17
77171;BME280;66144;50.020;14.422;2023-02-01T10:58:45;98579.44;;;6.64;63.55
77171;BME280;66144;50.020;14.422;2023-02-01T11:01:18;98588.34;;;6.68;64.29
77171;BME280;66144;50.020;14.422;2023-02-01T11:03:51;98586.78;;;6.67;63.57
77171;BME280;66144;50.020;14.422;2023-02-01T11:08:54;98584.72;;;6.57;63.05
77171;BME280;66144;50.020;14.422;2023-02-01T11:11:21;98577.63;;;6.52;63.36
77171;BME280;66144;50.020;14.422;2023-02-01T11:13:56;98561.72;;;6.49;63.37
77171;BME280;66144;50.020;14.422;2023-02-01T11:16:34;98574.25;;;6.52;63.15
77171;BME280;66144;50.020;14.422;2023-02-01T11:19:00;98582.47;;;6.61;63.49
77171;BME280;66144;50.020;14.422;2023-02-01T11:21:26;98578.41;;;6.65;62.56
77171;BME280;66144;50.020;14.422;2023-02-01T11:23:52;98579.78;;;6.90;62.33
77171;BME280;66144;50.020;14.422;2023-02-01T11:26:24;98578.81;;;7.32;61.19
77171;BME280;66144;50.020;14.422;2023-02-01T11:29:01;98570.19;;;7.83;58.61
77171;BME280;66144;50.020;14.422;2023-02-01T11:31:28;98566.13;;;9.04;56.23
77171;BME280;66144;50.020;14.422;2023-02-01T11:34:16;98569.34;;;9.33;54.65
77171;BME280;66144;50.020;14.422;2023-02-01T11:36:45;98557.03;;;9.28;55.06
77171;BME280;66144;50.020;14.422;2023-02-01T11:39:30;98549.59;;;9.15;54.39
77171;BME280;66144;50.020;14.422;2023-02-01T11:44:37;98558.88;;;8.89;54.34
77171;BME280;66144;50.020;14.422;2023-02-01T11:47:26;98562.38;;;8.78;55.04
77171;BME280;66144;50.020;14.422;2023-02-01T11:49:58;98566.91;;;9.05;54.78
77171;BME280;66144;50.020;14.422;2023-02-01T11:55:44;98561.47;;;9.28;52.98
77171;BME280;66144;50.020;14.422;2023-02-01T12:14:08;98575.03;;;8.53;53.68
77171;BME280;66144;50.020;14.422;2023-02-01T12:36:18;98564.06;;;8.51;53.73
77171;BME280;66144;50.020;14.422;2023-02-01T12:38:53;98555.91;;;8.30;54.19
77171;BME280;66144;50.020;14.422;2023-02-01T12:44:40;98574.28;;;8.24;54.83
77171;BME280;66144;50.020;14.422;2023-02-01T12:50:03;98574.53;;;8.22;54.98
77171;BME280;66144;50.020;14.422;2023-02-01T12:52:44;98564.72;;;8.29;55.24
77171;BME280;66144;50.020;14.422;2023-02-01T12:55:23;98577.16;;;8.39;54.82
77171;BME280;66144;50.020;14.422;2023-02-01T12:57:55;98566.19;;;8.54;54.47
77171;BME280;66144;50.020;14.422;2023-02-01T13:02:59;98564.44;;;8.76;53.29
77171;BME280;66144;50.020;14.422;2023-02-01T13:11:04;98563.75;;;8.47;53.49
77171;BME280;66144;50.020;14.422;2023-02-01T13:13:41;98573.34;;;8.47;54.14
77171;BME280;66144;50.020;14.422;2023-02-01T13:18:38;98562.63;;;8.26;53.78
77171;BME280;66144;50.020;14.422;2023-02-01T13:21:15;98583.72;;;8.30;53.92
77171;BME280;66144;50.020;14.422;2023-02-01T13:23:48;98578.75;;;8.28;53.35
77171;BME280;66144;50.020;14.422;2023-02-01T13:26:14;98566.19;;;8.37;53.36
77171;BME280;66144;50.020;14.422;2023-02-01T13:28:48;98576.72;;;8.30;53.61
77171;BME280;66144;50.020;14.422;2023-02-01T13:42:27;98562.00;;;8.36;51.22
77171;BME280;66144;50.020;14.422;2023-02-01T13:45:02;98566.31;;;8.30;51.62
77171;BME280;66144;50.020;14.422;2023-02-01T13:47:33;98558.16;;;8.10;51.23
77171;BME280;66144;50.020;14.422;2023-02-01T13:50:13;98572.75;;;8.11;51.79
77171;BME280;66144;50.020;14.422;2023-02-01T13:52:45;98565.34;;;8.03;52.01
77171;BME280;66144;50.020;14.422;2023-02-01T13:57:46;98585.09;;;7.87;52.33
77171;BME280;66144;50.020;14.422;2023-02-01T14:00:32;98582.63;;;7.81;52.53
77171;BME280;66144;50.020;14.422;2023-02-01T14:13:30;98563.16;;;7.55;53.69
77171;BME280;66144;50.020;14.422;2023-02-01T14:23:42;98546.22;;;7.52;54.53
77171;BME280;66144;50.020;14.422;2023-02-01T14:26:11;98559.41;;;7.62;55.37
77171;BME280;66144;50.020;14.422;2023-02-01T14:29:00;98568.91;;;7.69;55.33
77171;BME280;66144;50.020;14.422;2023-02-01T14:33:59;98560.34;;;7.56;56.29
77171;BME280;66144;50.020;14.422;2023-02-01T14:36:26;98561.81;;;7.52;56.32
77171;BME280;66144;50.020;14.422;2023-02-01T14:39:03;98558.13;;;7.48;56.89
77171;BME280;66144;50.020;14.422;2023-02-01T14:41:32;98568.28;;;7.50;56.88
77171;BME280;66144;50.020;14.422;2023-02-01T14:49:30;98565.06;;;7.59;56.69
77171;BME280;66144;50.020;14.422;2023-02-01T14:51:57;98561.91;;;7.57;56.74
77171;BME280;66144;50.020;14.422;2023-02-01T14:54:24;98559.53;;;7.56;56.91
77171;BME280;66144;50.020;14.422;2023-02-01T14:56:50;98560.28;;;7.40;56.83
77171;BME280;66144;50.020;14.422;2023-02-01T14:59:17;98559.03;;;7.42;57.10
77171;BME280;66144;50.020;14.422;2023-02-01T15:01:52;98569.88;;;7.39;56.65
77171;BME280;66144;50.020;14.422;2023-02-01T15:04:19;98574.19;;;7.34;56.30
77171;BME280;66144;50.020;14.422;2023-02-01T15:06:48;98559.06;;;7.19;55.78
77171;BME280;66144;50.020;14.422;2023-02-01T15:14:21;98567.44;;;7.21;56.90
77171;BME280;66144;50.020;14.422;2023-02-01T15:16:46;98565.06;;;7.19;56.38
77171;BME280;66144;50.020;14.422;2023-02-01T15:19:20;98559.44;;;7.11;56.95
77171;BME280;66144;50.020;14.422;2023-02-01T15:21:51;98559.91;;;7.08;56.78
77171;BME280;66144;50.020;14.422;2023-02-01T15:24:25;98561.38;;;7.04;56.79
77171;BME280;66144;50.020;14.422;2023-02-01T15:26:53;98554.13;;;6.94;57.04
77171;BME280;66144;50.020;14.422;2023-02-01T15:29:20;98556.97;;;7.04;56.91
77171;BME280;66144;50.020;14.422;2023-02-01T15:31:50;98562.03;;;6.99;57.27
77171;BME280;66144;50.020;14.422;2023-02-01T15:34:17;98558.66;;;6.99;57.47
77171;BME280;66144;50.020;14.422;2023-02-01T15:36:44;98551.44;;;7.01;57.45
77171;BME280;66144;50.020;14.422;2023-02-01T15:39:20;98548.16;;;6.93;58.00
77171;BME280;66144;50.020;14.422;2023-02-01T15:42:11;98560.69;;;6.97;58.88
77171;BME280;66144;50.020;14.422;2023-02-01T15:44:42;98554.84;;;6.89;58.66
77171;BME280;66144;50.020;14.422;2023-02-01T15:47:28;98555.97;;;6.82;58.97
77171;BME280;66144;50.020;14.422;2023-02-01T15:49:57;98555.97;;;6.82;58.96
77171;BME280;66144;50.020;14.422;2023-02-01T15:52:25;98547.75;;;6.73;58.65